In Rescue
 
Open Full Screen Window  High Contrast Mode
Wind Gusting 00 knots
06
March 19, 2019 7:40 PM EDT
Weather Information
Wind Direction
  180 °
Wind Speed
  06 kt (7 mph)
Wind Gust
  00 kt (0 mph)
Altimeter
30.23 in
Visibility
10 SM
Temperature
04° C
39° F
Dewpoint
-04° C
25° F
Humidity
56%
1hr Rain Fall
00.00 in.
24hr Rain Fall
00.00 in.
Sky Condition
Clear
VFR

METAR KOSC 192340Z AUTO 18006KT 10SM CLR 04/M04 A3023 RMK AO2 T00401042

FAA Disclaimer: The data displayed is for advisory purposes only and is not to be used for flight planning or operations.